createdAt,value
2023-03-10T00:01:25.085Z,2.37
2023-03-10T00:03:56.388Z,2.47
2023-03-10T00:06:27.597Z,2.10
2023-03-10T00:08:56.736Z,2.40
2023-03-10T00:11:25.600Z,2.30
2023-03-10T00:13:54.524Z,2.57
2023-03-10T00:16:25.546Z,1.97
2023-03-10T00:18:56.649Z,2.30
2023-03-10T00:21:26.864Z,2.30
2023-03-10T00:23:56.149Z,2.27
2023-03-10T00:26:27.533Z,2.30
2023-03-10T00:28:57.118Z,2.37
2023-03-10T00:31:31.625Z,2.30
2023-03-10T00:34:01.934Z,2.17
2023-03-10T00:36:32.648Z,2.30
2023-03-10T00:39:02.509Z,2.20
2023-03-10T00:41:33.074Z,2.20
2023-03-10T00:44:02.140Z,2.20
2023-03-10T00:46:33.497Z,2.57
2023-03-10T00:49:03.999Z,1.93
2023-03-10T00:51:32.789Z,2.00
2023-03-10T00:54:02.442Z,2.10
2023-03-10T00:56:31.765Z,2.10
2023-03-10T00:59:01.531Z,2.23
2023-03-10T01:01:32.919Z,2.00
2023-03-10T01:04:05.709Z,2.20
2023-03-10T01:06:34.640Z,2.20
2023-03-10T01:09:03.650Z,2.20
2023-03-10T01:11:32.923Z,1.90
2023-03-10T01:14:03.500Z,1.97
2023-03-10T01:16:32.966Z,2.00
2023-03-10T01:19:02.110Z,2.10
2023-03-10T01:21:34.214Z,2.10
2023-03-10T01:24:04.418Z,2.23
2023-03-10T01:26:33.416Z,2.27
2023-03-10T01:29:02.121Z,2.20
2023-03-10T01:31:31.091Z,2.10
2023-03-10T01:34:00.175Z,1.93
2023-03-10T01:36:29.690Z,2.30
2023-03-10T01:39:00.524Z,2.10
2023-03-10T01:41:29.211Z,2.10
2023-03-10T01:43:59.775Z,1.90
2023-03-10T01:47:00.271Z,1.90
2023-03-10T01:49:37.381Z,2.00
2023-03-10T01:52:11.616Z,1.73
2023-03-10T01:54:49.925Z,1.87
2023-03-10T01:57:23.401Z,2.20
2023-03-10T01:59:54.535Z,1.83
2023-03-10T02:02:23.767Z,1.90
2023-03-10T02:04:53.758Z,2.20
2023-03-10T02:07:28.213Z,2.10
2023-03-10T02:09:58.996Z,2.07
2023-03-10T02:12:27.643Z,1.73
2023-03-10T02:14:56.547Z,2.10
2023-03-10T02:17:28.836Z,2.00
2023-03-10T02:20:28.949Z,2.20
2023-03-10T02:22:59.174Z,2.10
2023-03-10T02:25:40.501Z,2.47
2023-03-10T02:28:10.835Z,2.40
2023-03-10T02:30:42.678Z,2.00
2023-03-10T02:33:15.004Z,1.80
2023-03-10T02:35:46.045Z,1.90
2023-03-10T02:38:19.289Z,1.90
2023-03-10T02:40:51.089Z,2.00
2023-03-10T02:43:27.780Z,1.90
2023-03-10T02:46:15.316Z,2.03
2023-03-10T02:48:46.781Z,2.10
2023-03-10T02:51:31.008Z,2.10
2023-03-10T02:54:02.737Z,2.00
2023-03-10T02:56:32.425Z,1.90
2023-03-10T02:59:03.217Z,2.07
2023-03-10T03:01:32.087Z,2.13
2023-03-10T03:04:02.845Z,2.13
2023-03-10T03:06:31.992Z,2.10
2023-03-10T03:09:02.272Z,2.07
2023-03-10T03:11:32.425Z,1.90
2023-03-10T03:14:02.667Z,2.20
2023-03-10T03:16:32.447Z,1.90
2023-03-10T03:19:05.196Z,1.87
2023-03-10T03:21:34.107Z,2.20
2023-03-10T03:24:02.767Z,2.47
2023-03-10T03:26:32.819Z,1.90
2023-03-10T03:29:12.237Z,2.10
2023-03-10T03:31:42.544Z,2.10
2023-03-10T03:34:16.726Z,2.17
2023-03-10T03:36:47.076Z,1.97
2023-03-10T03:39:19.027Z,2.10
2023-03-10T03:41:53.440Z,2.40
2023-03-10T03:44:25.426Z,2.10
2023-03-10T03:46:54.876Z,1.87
2023-03-10T03:49:24.813Z,2.30
2023-03-10T03:51:53.927Z,1.93
2023-03-10T03:54:25.019Z,1.93
2023-03-10T03:56:53.664Z,2.17
2023-03-10T03:59:23.944Z,2.30
2023-03-10T04:01:52.745Z,2.20
2023-03-10T04:04:21.572Z,2.23
2023-03-10T04:06:50.202Z,2.50
2023-03-10T04:09:19.435Z,2.30
2023-03-10T04:11:50.397Z,2.50
2023-03-10T04:14:19.474Z,2.30
2023-03-10T04:16:49.877Z,2.50
2023-03-10T04:19:18.568Z,2.30
2023-03-10T04:21:50.151Z,2.40
2023-03-10T04:24:19.256Z,2.50
2023-03-10T04:26:48.094Z,2.30
2023-03-10T04:29:16.973Z,2.43
2023-03-10T04:31:55.802Z,2.67
2023-03-10T04:34:33.435Z,2.20
2023-03-10T04:37:02.637Z,2.30
2023-03-10T04:39:31.549Z,2.30
2023-03-10T04:42:00.417Z,2.30
2023-03-10T04:44:31.203Z,2.50
2023-03-10T04:47:02.913Z,2.40
2023-03-10T04:49:33.955Z,2.43
2023-03-10T04:52:03.804Z,2.13
2023-03-10T04:54:32.643Z,2.43
2023-03-10T04:57:01.766Z,2.20
2023-03-10T04:59:31.248Z,2.10
2023-03-10T05:02:00.563Z,2.10
2023-03-10T05:04:29.639Z,2.13
2023-03-10T05:07:00.178Z,2.40
2023-03-10T05:09:37.120Z,2.30
2023-03-10T05:12:06.757Z,2.20
2023-03-10T05:14:38.811Z,2.20
2023-03-10T05:17:08.476Z,2.00
2023-03-10T05:19:39.519Z,2.10
2023-03-10T05:22:12.661Z,2.20
2023-03-10T05:24:41.455Z,1.93
2023-03-10T05:27:10.636Z,1.80
2023-03-10T05:29:43.291Z,1.90
2023-03-10T05:32:18.834Z,1.50
2023-03-10T05:34:49.429Z,1.63
2023-03-10T05:37:20.023Z,1.50
2023-03-10T05:39:49.284Z,1.70
2023-03-10T05:42:23.041Z,1.53
2023-03-10T05:44:52.361Z,1.60
2023-03-10T05:47:21.083Z,1.53
2023-03-10T05:49:50.250Z,1.30
2023-03-10T05:52:20.590Z,1.30
2023-03-10T05:54:49.354Z,1.50
2023-03-10T05:57:18.023Z,1.30
2023-03-10T05:59:46.995Z,1.57
2023-03-10T06:02:16.002Z,1.27
2023-03-10T06:04:44.791Z,1.20
2023-03-10T06:07:13.461Z,1.40
2023-03-10T06:09:43.650Z,1.43
2023-03-10T06:12:12.375Z,1.50
2023-03-10T06:14:41.054Z,1.53
2023-03-10T06:17:09.862Z,1.53
2023-03-10T06:19:38.610Z,1.50
2023-03-10T06:22:07.228Z,1.70
2023-03-10T06:24:36.065Z,1.50
2023-03-10T06:27:07.151Z,1.60
2023-03-10T06:29:35.882Z,1.60
2023-03-10T06:32:04.742Z,1.50
2023-03-10T06:34:33.559Z,1.30
2023-03-10T06:37:02.149Z,1.60
2023-03-10T06:39:31.862Z,1.50
2023-03-10T06:42:02.128Z,1.40
2023-03-10T06:44:32.329Z,1.47
2023-03-10T06:47:01.228Z,1.40
2023-03-10T06:49:31.248Z,1.40
2023-03-10T06:52:00.399Z,1.63
2023-03-10T06:54:29.286Z,1.33
2023-03-10T06:56:58.020Z,1.40
2023-03-10T06:59:26.653Z,2.03
2023-03-10T07:01:56.759Z,1.27
2023-03-10T07:04:25.477Z,1.20
2023-03-10T07:06:54.446Z,1.30
2023-03-10T07:09:23.101Z,1.33
2023-03-10T07:11:51.726Z,1.20
2023-03-10T07:14:20.306Z,1.20
2023-03-10T07:16:48.937Z,1.30
2023-03-10T07:19:19.054Z,6.90
2023-03-10T07:21:47.766Z,1.23
2023-03-10T07:24:17.097Z,1.20
2023-03-10T07:26:46.164Z,1.17
2023-03-10T07:29:14.809Z,1.10
2023-03-10T07:31:45.771Z,1.10
2023-03-10T07:34:14.897Z,1.10
2023-03-10T07:36:44.854Z,1.10
2023-03-10T07:39:13.558Z,0.80
2023-03-10T07:41:42.219Z,1.00
2023-03-10T07:44:10.981Z,1.07
2023-03-10T07:46:39.734Z,1.10
2023-03-10T07:49:08.627Z,0.90
2023-03-10T07:51:38.161Z,1.00
2023-03-10T07:54:08.350Z,1.20
2023-03-10T07:56:37.072Z,1.00
2023-03-10T07:59:05.703Z,1.20
2023-03-10T08:01:34.461Z,1.30
2023-03-10T08:04:03.170Z,1.03
2023-03-10T08:06:32.939Z,0.90
2023-03-10T08:09:01.637Z,0.87
2023-03-10T08:11:31.837Z,0.83
2023-03-10T08:14:00.656Z,0.90
2023-03-10T08:16:29.482Z,0.73
2023-03-10T08:18:58.286Z,0.90
2023-03-10T08:21:26.850Z,0.90
2023-03-10T08:23:55.440Z,0.90
2023-03-10T08:26:24.004Z,1.00
2023-03-10T08:28:53.914Z,1.10
2023-03-10T08:31:23.215Z,0.80
2023-03-10T08:33:52.146Z,0.80
2023-03-10T08:36:23.632Z,0.90
2023-03-10T08:38:53.439Z,0.90
2023-03-10T08:41:24.746Z,0.90
2023-03-10T08:43:56.610Z,0.90
2023-03-10T08:46:26.991Z,1.00
2023-03-10T08:48:56.514Z,0.90
2023-03-10T08:51:25.469Z,1.00
2023-03-10T08:53:54.482Z,1.00
2023-03-10T08:56:24.413Z,0.77
2023-03-10T08:59:00.184Z,0.90
2023-03-10T09:01:35.337Z,0.87
2023-03-10T09:04:08.505Z,1.10
2023-03-10T09:06:37.408Z,0.70
2023-03-10T09:09:07.549Z,0.97
2023-03-10T09:11:39.160Z,0.80
2023-03-10T09:14:10.844Z,0.90
2023-03-10T09:16:40.813Z,1.10
2023-03-10T09:19:10.287Z,0.70
2023-03-10T09:21:44.984Z,0.87
2023-03-10T09:24:13.624Z,1.10
2023-03-10T09:26:44.575Z,0.88
2023-03-10T09:29:15.010Z,0.60
2023-03-10T09:31:44.906Z,1.00
2023-03-10T09:34:13.965Z,0.82
2023-03-10T09:37:13.864Z,0.88
2023-03-10T09:39:42.529Z,0.80
2023-03-10T09:42:38.994Z,0.70
2023-03-10T09:45:27.703Z,0.80
2023-03-10T09:48:39.482Z,0.73
2023-03-10T09:51:17.365Z,0.80
2023-03-10T09:53:56.245Z,0.70
2023-03-10T09:56:29.734Z,0.77
2023-03-10T09:59:01.221Z,0.98
2023-03-10T10:01:34.023Z,0.80
2023-03-10T10:04:09.322Z,0.90
2023-03-10T10:06:42.479Z,0.90
2023-03-10T10:09:19.037Z,0.90
2023-03-10T10:11:47.725Z,0.93
2023-03-10T10:14:28.434Z,0.98
2023-03-10T10:17:04.176Z,0.88
2023-03-10T10:19:36.785Z,0.90
2023-03-10T10:22:11.673Z,0.90
2023-03-10T10:24:40.982Z,0.90
2023-03-10T10:27:10.560Z,1.10
2023-03-10T10:29:42.487Z,1.00
2023-03-10T10:32:14.899Z,0.80
2023-03-10T10:34:45.155Z,0.70
2023-03-10T10:37:30.833Z,0.60
2023-03-10T10:40:01.217Z,0.50
2023-03-10T10:42:31.542Z,0.60
2023-03-10T10:45:02.411Z,0.50
2023-03-10T10:47:34.358Z,0.70
2023-03-10T10:50:19.510Z,0.60
2023-03-10T10:52:50.711Z,0.53
2023-03-10T10:55:34.434Z,0.60
2023-03-10T10:58:06.674Z,0.70
2023-03-10T11:00:39.938Z,0.70
2023-03-10T11:03:26.245Z,0.70
2023-03-10T11:05:56.456Z,0.70
2023-03-10T11:08:37.745Z,0.70
2023-03-10T11:11:23.487Z,0.53
2023-03-10T11:14:05.304Z,0.60
2023-03-10T11:16:41.359Z,0.80
2023-03-10T11:19:21.034Z,0.80
2023-03-10T11:21:55.916Z,1.20
2023-03-10T11:24:32.198Z,0.70
2023-03-10T11:27:05.715Z,0.70
2023-03-10T11:29:52.832Z,0.93
2023-03-10T11:32:28.456Z,0.93
2023-03-10T11:35:29.269Z,0.70
2023-03-10T11:38:29.717Z,0.80
2023-03-10T11:41:02.856Z,1.10
2023-03-10T11:43:39.340Z,1.00
2023-03-10T11:46:14.690Z,1.33
2023-03-10T11:49:00.955Z,0.95
2023-03-10T11:51:36.769Z,0.95
2023-03-10T11:54:15.727Z,0.80
2023-03-10T11:56:45.750Z,1.05
2023-03-10T11:59:18.290Z,1.17
2023-03-10T12:01:51.175Z,0.90
2023-03-10T12:04:24.104Z,0.90
2023-03-10T12:08:08.393Z,1.45
2023-03-10T12:10:42.218Z,1.20
2023-03-10T12:13:23.518Z,0.98
2023-03-10T12:15:57.009Z,1.00
2023-03-10T12:18:26.915Z,1.20
2023-03-10T12:21:20.746Z,1.10
2023-03-10T12:23:50.543Z,0.88
2023-03-10T12:26:55.492Z,1.00
2023-03-10T12:29:35.191Z,1.92
2023-03-10T12:32:04.194Z,0.90
2023-03-10T12:34:36.101Z,0.90
2023-03-10T12:37:08.458Z,0.70
2023-03-10T12:39:44.012Z,0.82
2023-03-10T12:42:31.032Z,0.90
2023-03-10T12:45:28.797Z,0.70
2023-03-10T12:48:01.660Z,0.50
2023-03-10T12:50:43.965Z,0.63
2023-03-10T12:53:29.324Z,0.60
2023-03-10T12:56:21.179Z,0.60
2023-03-10T12:58:54.203Z,0.50
2023-03-10T13:01:27.096Z,0.50
2023-03-10T13:03:57.137Z,0.60
2023-03-10T13:06:33.817Z,0.50
2023-03-10T13:09:11.969Z,0.70
2023-03-10T13:11:44.191Z,0.60
2023-03-10T13:14:15.349Z,0.70
2023-03-10T13:16:54.751Z,0.77
2023-03-10T13:19:24.872Z,0.90
2023-03-10T13:21:54.301Z,0.80
2023-03-10T13:24:27.515Z,0.90
2023-03-10T13:27:04.904Z,0.60
2023-03-10T13:30:26.700Z,0.60
2023-03-10T13:33:04.138Z,0.60
2023-03-10T13:35:36.211Z,0.70
2023-03-10T13:38:07.082Z,0.50
2023-03-10T13:40:36.320Z,0.70
2023-03-10T13:43:06.955Z,0.60
2023-03-10T13:45:35.623Z,0.60
2023-03-10T13:48:07.593Z,0.60
2023-03-10T13:50:36.242Z,0.65
2023-03-10T13:53:04.742Z,0.70
2023-03-10T13:55:42.126Z,0.57
2023-03-10T13:58:14.858Z,0.60
2023-03-10T14:00:50.498Z,0.60
2023-03-10T14:03:21.588Z,0.73
2023-03-10T14:05:51.115Z,0.70
2023-03-10T14:08:22.470Z,0.60
2023-03-10T14:10:51.300Z,0.80
2023-03-10T14:13:42.524Z,0.83
2023-03-10T14:16:12.056Z,0.70
2023-03-10T14:18:43.814Z,0.63
2023-03-10T14:21:33.035Z,0.90
2023-03-10T14:24:06.838Z,0.60
2023-03-10T14:26:35.589Z,0.80
2023-03-10T14:29:04.887Z,0.70
2023-03-10T14:31:33.439Z,0.73
2023-03-10T14:34:03.498Z,0.60
2023-03-10T14:36:31.963Z,0.73
2023-03-10T14:39:00.473Z,0.70
2023-03-10T14:41:29.290Z,0.60
2023-03-10T14:43:58.580Z,0.70
2023-03-10T14:46:27.215Z,0.70
2023-03-10T14:49:02.604Z,0.77
2023-03-10T14:51:36.097Z,0.40
2023-03-10T14:54:05.485Z,0.80
2023-03-10T14:56:35.246Z,0.73
2023-03-10T14:59:06.674Z,1.00
2023-03-10T15:01:35.618Z,0.63
2023-03-10T15:04:05.944Z,0.70
2023-03-10T15:06:34.641Z,0.70
2023-03-10T15:09:03.234Z,0.70
2023-03-10T15:11:37.259Z,0.70
2023-03-10T15:14:13.432Z,0.80
2023-03-10T15:16:42.143Z,0.60
2023-03-10T15:19:19.293Z,0.70
2023-03-10T15:21:47.814Z,0.70
2023-03-10T15:24:16.573Z,0.60
2023-03-10T15:26:45.248Z,0.70
2023-03-10T15:29:15.825Z,0.83
2023-03-10T15:31:44.640Z,0.80
2023-03-10T15:34:14.622Z,0.90
2023-03-10T15:36:43.396Z,0.70
2023-03-10T15:39:16.363Z,0.73
2023-03-10T15:41:54.005Z,0.90
2023-03-10T15:44:22.738Z,0.90
2023-03-10T15:46:54.930Z,0.50
2023-03-10T15:49:25.402Z,0.63
2023-03-10T15:51:54.067Z,0.60
2023-03-10T15:54:22.802Z,0.70
2023-03-10T15:56:51.977Z,0.50
2023-03-10T15:59:20.640Z,0.77
2023-03-10T16:01:49.455Z,0.70
2023-03-10T16:04:18.054Z,0.80
2023-03-10T16:06:48.461Z,0.70
2023-03-10T16:09:17.338Z,0.47
2023-03-10T16:11:46.040Z,0.70
2023-03-10T16:14:14.754Z,0.50
2023-03-10T16:16:43.468Z,0.57
2023-03-10T16:19:12.089Z,0.60
2023-03-10T16:21:40.735Z,0.60
2023-03-10T16:24:11.312Z,0.60
2023-03-10T16:26:43.944Z,0.80
2023-03-10T16:29:13.487Z,0.70
2023-03-10T16:31:43.013Z,0.80
2023-03-10T16:34:11.816Z,0.60
2023-03-10T16:36:40.481Z,0.60
2023-03-10T16:39:12.701Z,1.00
2023-03-10T16:41:41.397Z,0.83
2023-03-10T16:44:15.437Z,0.90
2023-03-10T16:46:44.095Z,0.80
2023-03-10T16:49:15.620Z,0.90
2023-03-10T16:51:46.091Z,0.93
2023-03-10T16:54:18.254Z,1.00
2023-03-10T16:56:48.700Z,1.43
2023-03-10T16:59:19.121Z,0.80
2023-03-10T17:01:50.089Z,1.10
2023-03-10T17:04:19.125Z,0.90
2023-03-10T17:06:49.160Z,0.90
2023-03-10T17:09:19.766Z,0.70
2023-03-10T17:11:53.620Z,1.00
2023-03-10T17:14:23.773Z,0.70
2023-03-10T17:16:52.624Z,0.80
2023-03-10T17:19:24.391Z,0.80
2023-03-10T17:21:53.117Z,0.80
2023-03-10T17:24:23.622Z,1.00
2023-03-10T17:26:52.416Z,0.90
2023-03-10T17:29:22.124Z,1.00
2023-03-10T17:31:51.870Z,1.00
2023-03-10T17:34:21.435Z,0.90
2023-03-10T17:36:51.914Z,1.07
2023-03-10T17:39:23.879Z,1.20
2023-03-10T17:41:54.777Z,1.10
2023-03-10T17:44:23.677Z,1.10
2023-03-10T17:46:53.080Z,1.20
2023-03-10T17:49:21.803Z,1.10
2023-03-10T17:51:50.683Z,1.27
2023-03-10T17:54:21.746Z,1.20
2023-03-10T17:56:53.177Z,1.20
2023-03-10T17:59:23.100Z,1.20
2023-03-10T18:01:51.893Z,1.40
2023-03-10T18:04:21.768Z,1.40
2023-03-10T18:06:50.845Z,1.33
2023-03-10T18:09:19.499Z,1.40
2023-03-10T18:11:48.200Z,1.47
2023-03-10T18:14:18.544Z,1.50
2023-03-10T18:16:47.223Z,1.60
2023-03-10T18:19:19.105Z,1.50
2023-03-10T18:21:52.636Z,1.40
2023-03-10T18:24:21.369Z,1.63
2023-03-10T18:26:50.208Z,1.50
2023-03-10T18:29:22.504Z,1.60
2023-03-10T18:32:21.495Z,1.67
2023-03-10T18:34:50.279Z,1.70
2023-03-10T18:37:18.923Z,1.90
2023-03-10T18:39:47.807Z,1.50
2023-03-10T18:42:16.477Z,1.50
2023-03-10T18:44:48.484Z,1.70
2023-03-10T18:47:17.270Z,1.47
2023-03-10T18:49:45.927Z,1.50
2023-03-10T18:52:16.351Z,1.60
2023-03-10T18:54:48.663Z,1.70
2023-03-10T18:57:17.650Z,1.50
2023-03-10T18:59:47.927Z,1.80
2023-03-10T19:02:19.645Z,1.50
2023-03-10T19:04:48.800Z,1.40
2023-03-10T19:07:20.571Z,1.70
2023-03-10T19:09:53.532Z,1.50
2023-03-10T19:12:26.649Z,1.50
2023-03-10T19:14:57.189Z,1.40
2023-03-10T19:17:26.835Z,1.60
2023-03-10T19:19:55.398Z,1.80
2023-03-10T19:22:24.064Z,1.33
2023-03-10T19:24:52.784Z,1.50
2023-03-10T19:27:21.445Z,1.60
2023-03-10T19:29:53.070Z,1.60
2023-03-10T19:32:23.247Z,1.60
2023-03-10T19:34:52.149Z,1.40
2023-03-10T19:37:22.179Z,1.53
2023-03-10T19:39:50.825Z,1.70
2023-03-10T19:42:19.458Z,1.30
2023-03-10T19:44:48.461Z,1.63
2023-03-10T19:47:19.348Z,1.50
2023-03-10T19:49:49.460Z,1.50
2023-03-10T19:52:18.040Z,1.80
2023-03-10T19:54:47.686Z,1.67
2023-03-10T19:57:16.371Z,1.80
2023-03-10T19:59:45.215Z,1.70
2023-03-10T20:02:15.226Z,2.13
2023-03-10T20:04:43.984Z,2.10
2023-03-10T20:07:14.333Z,2.10
2023-03-10T20:09:43.465Z,2.13
2023-03-10T20:12:15.350Z,2.20
2023-03-10T20:15:14.899Z,2.27
2023-03-10T20:17:43.724Z,2.30
2023-03-10T20:20:15.271Z,2.20
2023-03-10T20:22:46.581Z,2.37
2023-03-10T20:25:19.344Z,2.00
2023-03-10T20:27:50.276Z,2.10
2023-03-10T20:30:21.612Z,2.00
2023-03-10T20:32:50.659Z,2.03
2023-03-10T20:35:19.924Z,2.10
2023-03-10T20:37:50.094Z,2.30
2023-03-10T20:40:24.062Z,2.10
2023-03-10T20:42:54.043Z,2.07
2023-03-10T20:45:23.549Z,1.80
2023-03-10T20:47:53.386Z,1.83
2023-03-10T20:50:22.446Z,1.83
2023-03-10T20:52:53.206Z,1.83
2023-03-10T20:55:23.493Z,1.80
2023-03-10T20:57:54.244Z,1.80
2023-03-10T21:00:29.244Z,2.10
2023-03-10T21:02:58.351Z,2.37
2023-03-10T21:05:28.530Z,1.93
2023-03-10T21:07:59.269Z,2.20
2023-03-10T21:10:27.940Z,2.10
2023-03-10T21:12:56.747Z,2.33
2023-03-10T21:15:26.032Z,1.90
2023-03-10T21:17:54.831Z,1.90
2023-03-10T21:20:24.453Z,1.90
2023-03-10T21:22:53.379Z,1.70
2023-03-10T21:25:25.331Z,1.70
2023-03-10T21:27:58.794Z,1.80
2023-03-10T21:30:30.092Z,1.80
2023-03-10T21:32:59.469Z,1.73
2023-03-10T21:35:31.996Z,1.90
2023-03-10T21:38:01.139Z,1.63
2023-03-10T21:40:31.143Z,1.80
2023-03-10T21:43:02.572Z,2.00
2023-03-10T21:45:33.510Z,1.90
2023-03-10T21:48:03.264Z,1.90
2023-03-10T21:50:32.163Z,2.20
2023-03-10T21:53:01.777Z,2.10
2023-03-10T21:55:34.520Z,2.23
2023-03-10T21:58:05.622Z,2.50
2023-03-10T22:00:36.248Z,2.73
2023-03-10T22:03:05.957Z,2.40
2023-03-10T22:05:34.641Z,2.90
2023-03-10T22:08:03.341Z,2.97
2023-03-10T22:10:33.348Z,3.10
2023-03-10T22:13:02.659Z,3.13
2023-03-10T22:15:31.563Z,3.43
2023-03-10T22:18:00.217Z,3.33
2023-03-10T22:20:29.419Z,3.40
2023-03-10T22:22:58.341Z,3.13
2023-03-10T22:25:27.637Z,2.93
2023-03-10T22:27:58.371Z,3.03
2023-03-10T22:30:28.062Z,2.93
2023-03-10T22:32:57.412Z,3.30
2023-03-10T22:35:26.389Z,2.80
2023-03-10T22:37:54.936Z,2.80
2023-03-10T22:40:25.539Z,2.63
2023-03-10T22:42:55.615Z,2.43
2023-03-10T22:45:27.622Z,2.53
2023-03-10T22:47:59.920Z,2.33
2023-03-10T22:50:32.603Z,2.30
2023-03-10T22:53:01.439Z,2.43
2023-03-10T22:55:35.115Z,2.60
2023-03-10T22:58:04.776Z,2.30
2023-03-10T23:00:35.744Z,2.57
2023-03-10T23:03:05.141Z,2.00
2023-03-10T23:05:33.697Z,2.47
2023-03-10T23:08:02.325Z,2.20
2023-03-10T23:10:32.972Z,2.00
2023-03-10T23:13:02.883Z,2.30
2023-03-10T23:15:35.430Z,2.00
2023-03-10T23:18:04.588Z,2.07
2023-03-10T23:20:34.979Z,2.30
2023-03-10T23:23:05.027Z,2.10
2023-03-10T23:25:35.455Z,2.30
2023-03-10T23:28:05.181Z,2.40
2023-03-10T23:30:36.233Z,2.00
2023-03-10T23:33:07.574Z,2.17
2023-03-10T23:35:37.306Z,2.30
2023-03-10T23:38:07.446Z,2.13
2023-03-10T23:40:41.634Z,2.20
2023-03-10T23:43:10.414Z,2.10
2023-03-10T23:45:40.879Z,2.47
2023-03-10T23:48:13.049Z,2.10
2023-03-10T23:50:46.160Z,2.10
2023-03-10T23:53:20.945Z,2.17
2023-03-10T23:55:50.013Z,1.93
2023-03-10T23:58:21.267Z,2.10
